createdAt,value
2017-03-22T00:00:19.600Z,9.11
2017-03-22T00:01:28.564Z,9.1
2017-03-22T00:02:37.528Z,9.2
2017-03-22T00:03:46.738Z,9.05
2017-03-22T00:04:55.704Z,9.13
2017-03-22T00:06:04.660Z,9.13
2017-03-22T00:07:13.611Z,9.11
2017-03-22T00:08:22.574Z,9.11
2017-03-22T00:09:31.782Z,9.05
2017-03-22T00:10:40.745Z,9.11
2017-03-22T00:11:49.697Z,9.15
2017-03-22T00:12:58.652Z,9.11
2017-03-22T00:14:07.697Z,9.08
2017-03-22T00:15:16.905Z,9.08
2017-03-22T00:16:25.861Z,9.11
2017-03-22T00:17:34.826Z,9.08
2017-03-22T00:18:43.783Z,9.02
2017-03-22T00:19:52.740Z,9.04
2017-03-22T00:21:02.085Z,9.02
2017-03-22T00:22:11.039Z,9.04
2017-03-22T00:23:19.997Z,9.11
2017-03-22T00:24:28.952Z,9.05
2017-03-22T00:25:37.923Z,9.08
2017-03-22T00:26:47.212Z,9.08
2017-03-22T00:27:56.177Z,9.02
2017-03-22T00:29:05.137Z,9.08
2017-03-22T00:30:14.101Z,9.04
2017-03-22T00:31:23.050Z,9.02
2017-03-22T00:32:32.304Z,9.01
2017-03-22T00:33:41.274Z,9.05
2017-03-22T00:34:50.231Z,9.04
2017-03-22T00:35:59.186Z,8.99
2017-03-22T00:37:08.143Z,9.1
2017-03-22T00:38:17.353Z,8.99
2017-03-22T00:39:26.326Z,9.08
2017-03-22T00:40:35.627Z,8.98
2017-03-22T00:41:44.578Z,8.98
2017-03-22T00:42:53.632Z,8.96
2017-03-22T00:44:02.844Z,9.04
2017-03-22T00:45:11.802Z,9.01
2017-03-22T00:46:20.761Z,9.01
2017-03-22T00:47:29.715Z,8.99
2017-03-22T00:48:38.675Z,8.96
2017-03-22T00:49:47.940Z,8.81
2017-03-22T00:50:56.901Z,8.87
2017-03-22T00:52:05.860Z,8.83
2017-03-22T00:53:14.823Z,8.91
2017-03-22T00:54:23.793Z,8.92
2017-03-22T00:55:33.007Z,8.91
2017-03-22T00:56:41.963Z,8.89
2017-03-22T00:57:50.928Z,8.92
2017-03-22T00:58:59.884Z,8.95
2017-03-22T01:00:08.839Z,8.86
2017-03-22T01:01:18.101Z,8.83
2017-03-22T01:02:27.069Z,8.84
2017-03-22T01:03:36.029Z,8.8
2017-03-22T01:04:44.999Z,8.8
2017-03-22T01:05:53.955Z,8.86
2017-03-22T01:07:03.214Z,8.76
2017-03-22T01:08:12.172Z,8.83
2017-03-22T01:09:21.129Z,8.81
2017-03-22T01:10:30.085Z,8.83
2017-03-22T01:11:39.034Z,8.87
2017-03-22T01:12:48.241Z,8.81
2017-03-22T01:13:57.201Z,8.77
2017-03-22T01:15:06.164Z,8.84
2017-03-22T01:16:15.113Z,8.76
2017-03-22T01:17:24.067Z,8.76
2017-03-22T01:18:33.322Z,8.81
2017-03-22T01:19:42.288Z,8.76
2017-03-22T01:20:51.240Z,8.81
2017-03-22T01:22:00.194Z,8.81
2017-03-22T01:23:09.161Z,8.71
2017-03-22T01:24:18.434Z,8.7
2017-03-22T01:25:27.406Z,8.71
2017-03-22T01:26:36.356Z,8.66
2017-03-22T01:27:45.308Z,8.68
2017-03-22T01:28:54.265Z,8.65
2017-03-22T01:30:03.469Z,8.68
2017-03-22T01:31:12.420Z,8.68
2017-03-22T01:32:21.375Z,8.65
2017-03-22T01:33:30.341Z,8.65
2017-03-22T01:34:39.298Z,8.65
2017-03-22T01:35:48.583Z,8.74
2017-03-22T01:36:57.537Z,8.7
2017-03-22T01:38:06.583Z,8.68
2017-03-22T01:39:15.551Z,8.68
2017-03-22T01:40:24.509Z,8.7
2017-03-22T01:41:33.765Z,8.65
2017-03-22T01:42:42.731Z,8.65
2017-03-22T01:43:51.780Z,8.66
2017-03-22T01:45:00.743Z,8.58
2017-03-22T01:46:09.707Z,8.62
2017-03-22T01:47:18.917Z,8.65
2017-03-22T01:48:27.883Z,8.62
2017-03-22T01:49:36.846Z,8.58
2017-03-22T01:50:45.800Z,8.61
2017-03-22T01:51:54.749Z,8.48
2017-03-22T01:53:03.959Z,8.5
2017-03-22T01:54:12.919Z,8.62
2017-03-22T01:55:21.877Z,8.62
2017-03-22T01:56:30.829Z,8.5
2017-03-22T01:57:40.108Z,8.53
2017-03-22T01:58:49.320Z,8.56
2017-03-22T01:59:58.288Z,8.43
2017-03-22T02:01:07.240Z,8.55
2017-03-22T02:02:16.196Z,8.5
2017-03-22T02:03:25.158Z,8.5
2017-03-22T02:04:34.413Z,8.45
2017-03-22T02:05:43.405Z,8.53
2017-03-22T02:06:52.358Z,8.5
2017-03-22T02:08:01.644Z,8.53
2017-03-22T02:09:10.598Z,8.41
2017-03-22T02:10:19.857Z,8.41
2017-03-22T02:11:28.811Z,8.43
2017-03-22T02:12:37.765Z,8.3
2017-03-22T02:13:46.730Z,8.36
2017-03-22T02:14:55.688Z,8.26
2017-03-22T02:16:04.940Z,8.28
2017-03-22T02:17:13.896Z,8.23
2017-03-22T02:18:22.852Z,8.16
2017-03-22T02:19:31.812Z,8.23
2017-03-22T02:20:40.807Z,8.16
2017-03-22T02:21:50.011Z,8.11
2017-03-22T02:22:58.970Z,8.16
2017-03-22T02:24:07.936Z,8.02
2017-03-22T02:25:16.894Z,8.04
2017-03-22T02:26:25.847Z,8.01
2017-03-22T02:27:35.106Z,7.98
2017-03-22T02:28:44.110Z,8.02
2017-03-22T02:29:53.076Z,8.05
2017-03-22T02:31:02.034Z,8.04
2017-03-22T02:32:10.991Z,8.05
2017-03-22T02:33:20.245Z,8.01
2017-03-22T02:34:29.197Z,8.04
2017-03-22T02:35:38.153Z,8
2017-03-22T02:36:47.110Z,7.97
2017-03-22T02:37:56.072Z,7.95
2017-03-22T02:39:05.330Z,7.98
2017-03-22T02:40:14.292Z,7.93
2017-03-22T02:41:23.243Z,7.98
2017-03-22T02:42:32.368Z,7.92
2017-03-22T02:43:41.337Z,7.93
2017-03-22T02:44:50.606Z,7.97
2017-03-22T02:45:59.559Z,7.93
2017-03-22T02:47:08.512Z,7.93
2017-03-22T02:48:17.473Z,7.95
2017-03-22T02:49:26.443Z,7.97
2017-03-22T02:50:35.750Z,7.95
2017-03-22T02:51:44.787Z,7.93
2017-03-22T02:52:53.738Z,7.95
2017-03-22T02:54:02.696Z,7.97
2017-03-22T02:55:11.650Z,7.93
2017-03-22T02:56:20.909Z,7.93
2017-03-22T02:57:29.868Z,7.92
2017-03-22T02:58:38.830Z,7.95
2017-03-22T02:59:47.788Z,7.95
2017-03-22T03:00:56.753Z,7.93
2017-03-22T03:02:06.006Z,7.95
2017-03-22T03:03:14.971Z,7.95
2017-03-22T03:04:23.936Z,8.01
2017-03-22T03:05:32.893Z,7.95
2017-03-22T03:06:41.849Z,8
2017-03-22T03:07:51.105Z,8.01
2017-03-22T03:09:00.065Z,7.93
2017-03-22T03:10:09.027Z,8.01
2017-03-22T03:11:17.978Z,8.02
2017-03-22T03:12:26.929Z,8.08
2017-03-22T03:13:36.179Z,7.98
2017-03-22T03:14:45.138Z,7.97
2017-03-22T03:15:54.099Z,8
2017-03-22T03:17:03.059Z,8.02
2017-03-22T03:18:12.016Z,8
2017-03-22T03:19:21.225Z,7.92
2017-03-22T03:20:30.179Z,8
2017-03-22T03:21:39.135Z,7.93
2017-03-22T03:22:48.088Z,7.98
2017-03-22T03:23:57.054Z,8
2017-03-22T03:25:06.313Z,7.9
2017-03-22T03:26:15.264Z,7.86
2017-03-22T03:27:24.213Z,7.89
2017-03-22T03:28:33.177Z,7.86
2017-03-22T03:29:42.138Z,7.93
2017-03-22T03:30:51.399Z,7.86
2017-03-22T03:32:00.351Z,7.87
2017-03-22T03:33:09.307Z,7.92
2017-03-22T03:34:18.267Z,7.95
2017-03-22T03:35:27.225Z,7.92
2017-03-22T03:36:36.486Z,7.89
2017-03-22T03:37:45.443Z,7.95
2017-03-22T03:38:54.407Z,7.92
2017-03-22T03:40:03.374Z,7.98
2017-03-22T03:41:12.322Z,7.97
2017-03-22T03:42:21.582Z,7.93
2017-03-22T03:43:30.542Z,7.95
2017-03-22T03:44:39.498Z,7.93
2017-03-22T03:45:48.454Z,7.97
2017-03-22T03:46:57.404Z,7.92
2017-03-22T03:48:06.655Z,7.97
2017-03-22T03:49:15.615Z,7.95
2017-03-22T03:50:24.894Z,7.97
2017-03-22T03:51:33.849Z,7.95
2017-03-22T03:52:42.839Z,8.02
2017-03-22T03:53:52.057Z,8.01
2017-03-22T03:55:01.019Z,8.05
2017-03-22T03:56:09.981Z,8.11
2017-03-22T03:57:19.020Z,8.07
2017-03-22T03:58:27.979Z,8.1
2017-03-22T03:59:37.196Z,8.12
2017-03-22T04:00:46.245Z,8.08
2017-03-22T04:01:55.199Z,8.1
2017-03-22T04:03:04.160Z,8.05
2017-03-22T04:04:13.140Z,8.08
2017-03-22T04:05:22.400Z,8.1
2017-03-22T04:06:31.363Z,8.05
2017-03-22T04:07:40.320Z,8.1
2017-03-22T04:08:49.294Z,8.1
2017-03-22T04:09:58.257Z,8.05
2017-03-22T04:11:07.845Z,8.07
2017-03-22T04:12:16.804Z,8.07
2017-03-22T04:13:26.082Z,8.01
2017-03-22T04:14:35.037Z,7.97
2017-03-22T04:15:43.991Z,7.93
2017-03-22T04:16:53.240Z,7.9
2017-03-22T04:18:02.204Z,7.97
2017-03-22T04:19:11.160Z,7.95
2017-03-22T04:20:20.123Z,7.9
2017-03-22T04:21:29.080Z,7.92
2017-03-22T04:22:38.354Z,7.92
2017-03-22T04:23:47.313Z,7.9
2017-03-22T04:24:56.277Z,7.93
2017-03-22T04:26:05.245Z,7.93
2017-03-22T04:27:14.205Z,7.97
2017-03-22T04:28:23.412Z,7.93
2017-03-22T04:29:32.368Z,7.98
2017-03-22T04:30:41.321Z,7.93
2017-03-22T04:31:50.277Z,7.95
2017-03-22T04:32:59.237Z,7.92
2017-03-22T04:34:08.449Z,7.92
2017-03-22T04:35:17.409Z,7.97
2017-03-22T04:36:26.364Z,8.01
2017-03-22T04:37:35.321Z,7.97
2017-03-22T04:38:44.279Z,7.9
2017-03-22T04:39:53.809Z,7.93
2017-03-22T04:41:02.769Z,7.87
2017-03-22T04:42:11.727Z,8
2017-03-22T04:43:20.694Z,7.93
2017-03-22T04:44:29.655Z,7.92
2017-03-22T04:45:38.858Z,7.92
2017-03-22T04:46:47.808Z,8.01
2017-03-22T04:47:56.760Z,7.95
2017-03-22T04:49:05.717Z,7.9
2017-03-22T04:50:14.674Z,7.87
2017-03-22T04:51:23.884Z,7.85
2017-03-22T04:52:32.838Z,7.89
2017-03-22T04:53:41.798Z,7.92
2017-03-22T04:54:50.763Z,7.87
2017-03-22T04:55:59.725Z,7.85
2017-03-22T04:57:08.937Z,7.95
2017-03-22T04:58:17.891Z,7.89
2017-03-22T04:59:26.852Z,7.85
2017-03-22T05:00:35.817Z,7.86
2017-03-22T05:01:44.778Z,7.85
2017-03-22T05:02:53.999Z,7.85
2017-03-22T05:04:03.043Z,7.83
2017-03-22T05:05:12.003Z,7.85
2017-03-22T05:06:20.958Z,7.79
2017-03-22T05:07:30.006Z,7.86
2017-03-22T05:08:39.218Z,7.82
2017-03-22T05:09:48.173Z,7.85
2017-03-22T05:10:57.125Z,7.75
2017-03-22T05:12:06.075Z,7.77
2017-03-22T05:13:15.046Z,7.74
2017-03-22T05:14:24.255Z,7.71
2017-03-22T05:15:33.210Z,7.71
2017-03-22T05:16:42.493Z,7.72
2017-03-22T05:17:51.452Z,7.71
2017-03-22T05:19:00.743Z,7.75
2017-03-22T05:20:09.951Z,7.72
2017-03-22T05:21:18.909Z,7.75
2017-03-22T05:22:27.951Z,7.75
2017-03-22T05:23:36.909Z,7.71
2017-03-22T05:24:45.870Z,7.77
2017-03-22T05:25:55.081Z,7.82
2017-03-22T05:27:04.038Z,7.8
2017-03-22T05:28:12.996Z,7.85
2017-03-22T05:29:21.990Z,7.79
2017-03-22T05:30:30.943Z,7.8
2017-03-22T05:31:40.145Z,7.8
2017-03-22T05:32:49.103Z,7.86
2017-03-22T05:33:58.070Z,7.83
2017-03-22T05:35:07.025Z,7.95
2017-03-22T05:36:15.981Z,7.89
2017-03-22T05:37:25.189Z,7.92
2017-03-22T05:38:34.144Z,7.95
2017-03-22T05:39:43.102Z,7.97
2017-03-22T05:40:52.056Z,7.95
2017-03-22T05:42:01.021Z,7.87
2017-03-22T05:43:10.557Z,7.98
2017-03-22T05:44:19.521Z,7.92
2017-03-22T05:45:28.478Z,7.95
2017-03-22T05:46:37.428Z,8.01
2017-03-22T05:47:46.382Z,8.02
2017-03-22T05:48:55.602Z,8.02
2017-03-22T05:50:04.555Z,8.04
2017-03-22T05:51:13.505Z,8.04
2017-03-22T05:52:22.461Z,8.08
2017-03-22T05:53:31.421Z,8.15
2017-03-22T05:54:40.720Z,8.2
2017-03-22T05:55:49.685Z,8.18
2017-03-22T05:56:58.639Z,8.18
2017-03-22T05:58:07.928Z,8.22
2017-03-22T05:59:16.883Z,8.22
2017-03-22T06:00:26.097Z,8.22
2017-03-22T06:01:35.047Z,8.18
2017-03-22T06:02:44.000Z,8.28
2017-03-22T06:03:52.969Z,8.22
2017-03-22T06:05:02.020Z,8.19
2017-03-22T06:06:11.224Z,8.3
2017-03-22T06:07:20.181Z,8.2
2017-03-22T06:08:29.145Z,8.2
2017-03-22T06:09:38.116Z,8.25
2017-03-22T06:10:47.078Z,8.22
2017-03-22T06:11:56.280Z,8.38
2017-03-22T06:13:05.234Z,8.33
2017-03-22T06:14:14.194Z,8.41
2017-03-22T06:15:23.478Z,8.37
2017-03-22T06:16:32.429Z,8.41
2017-03-22T06:17:41.648Z,8.43
2017-03-22T06:18:50.607Z,8.43
2017-03-22T06:19:59.561Z,8.45
2017-03-22T06:21:08.517Z,8.38
2017-03-22T06:22:17.474Z,8.4
2017-03-22T06:23:26.723Z,8.47
2017-03-22T06:24:35.681Z,8.43
2017-03-22T06:25:44.633Z,8.5
2017-03-22T06:26:53.579Z,8.5
2017-03-22T06:28:02.557Z,8.47
2017-03-22T06:29:11.787Z,8.48
2017-03-22T06:30:20.745Z,8.5
2017-03-22T06:31:29.795Z,8.58
2017-03-22T06:32:38.748Z,8.53
2017-03-22T06:33:47.709Z,8.5
2017-03-22T06:34:56.918Z,8.45
2017-03-22T06:36:05.874Z,8.55
2017-03-22T06:37:14.829Z,8.5
2017-03-22T06:38:23.792Z,8.48
2017-03-22T06:39:32.851Z,8.5
2017-03-22T06:40:42.056Z,8.52
2017-03-22T06:41:51.003Z,8.5
2017-03-22T06:42:59.965Z,8.5
2017-03-22T06:44:08.936Z,8.53
2017-03-22T06:45:17.895Z,8.55
2017-03-22T06:46:27.102Z,8.53
2017-03-22T06:47:36.061Z,8.59
2017-03-22T06:48:45.014Z,8.48
2017-03-22T06:49:54.296Z,8.59
2017-03-22T06:51:03.257Z,8.53
2017-03-22T06:52:12.463Z,8.61
2017-03-22T06:53:21.421Z,8.56
2017-03-22T06:54:30.378Z,8.61
2017-03-22T06:55:39.343Z,8.65
2017-03-22T06:56:48.297Z,8.61
2017-03-22T06:57:57.516Z,8.63
2017-03-22T06:59:06.487Z,8.68
2017-03-22T07:00:15.443Z,8.7
2017-03-22T07:01:24.402Z,8.7
2017-03-22T07:02:33.353Z,8.73
2017-03-22T07:03:42.577Z,8.74
2017-03-22T07:04:51.537Z,8.66
2017-03-22T07:06:00.499Z,8.74
2017-03-22T07:07:09.455Z,8.79
2017-03-22T07:08:18.461Z,8.81
2017-03-22T07:09:27.674Z,8.81
2017-03-22T07:10:36.634Z,8.81
2017-03-22T07:11:45.607Z,8.83
2017-03-22T07:12:54.576Z,8.84
2017-03-22T07:14:03.533Z,8.84
2017-03-22T07:15:12.744Z,8.92
2017-03-22T07:16:21.710Z,8.86
2017-03-22T07:17:30.664Z,8.86
2017-03-22T07:18:39.623Z,8.84
2017-03-22T07:19:48.584Z,8.99
2017-03-22T07:20:57.789Z,8.94
2017-03-22T07:22:06.781Z,8.91
2017-03-22T07:23:15.741Z,8.92
2017-03-22T07:24:24.702Z,9.04
2017-03-22T07:25:33.657Z,9.08
2017-03-22T07:26:42.854Z,9.11
2017-03-22T07:27:51.812Z,9.04
2017-03-22T07:29:00.774Z,9.08
2017-03-22T07:30:09.732Z,9.08
2017-03-22T07:31:18.777Z,9.08
2017-03-22T07:32:27.985Z,9.08
2017-03-22T07:33:36.960Z,9.1
2017-03-22T07:34:46.286Z,9.01
2017-03-22T07:35:55.238Z,8.99
2017-03-22T07:37:04.189Z,9.08
2017-03-22T07:38:13.399Z,8.95
2017-03-22T07:39:22.358Z,9.05
2017-03-22T07:40:31.635Z,9.1
2017-03-22T07:41:40.590Z,9.11
2017-03-22T07:42:49.557Z,9.04
2017-03-22T07:43:58.772Z,9.13
2017-03-22T07:45:07.730Z,9.04
2017-03-22T07:46:16.679Z,9.13
2017-03-22T07:47:25.644Z,9.15
2017-03-22T07:48:34.604Z,9.14
2017-03-22T07:49:43.862Z,9.11
2017-03-22T07:50:52.819Z,9.1
2017-03-22T07:52:01.770Z,9.08
2017-03-22T07:53:10.733Z,9.05
2017-03-22T07:54:19.700Z,9.11
2017-03-22T07:55:28.958Z,9.11
2017-03-22T07:56:37.917Z,9.13
2017-03-22T07:57:46.872Z,9.2
2017-03-22T07:58:55.835Z,9.13
2017-03-22T08:00:04.871Z,9.13
2017-03-22T08:01:14.084Z,9.13
2017-03-22T08:02:23.041Z,9.23
2017-03-22T08:03:31.995Z,9.23
2017-03-22T08:04:40.953Z,9.24
2017-03-22T08:05:49.991Z,9.28
2017-03-22T08:06:59.202Z,9.29
2017-03-22T08:08:08.160Z,9.33
2017-03-22T08:09:17.116Z,9.42
2017-03-22T08:10:26.088Z,9.46
2017-03-22T08:11:35.463Z,9.57
2017-03-22T08:12:44.669Z,9.58
2017-03-22T08:13:53.633Z,9.76
2017-03-22T08:15:02.592Z,9.81
2017-03-22T08:16:11.545Z,9.86
2017-03-22T08:17:20.496Z,9.87
2017-03-22T08:18:29.697Z,9.89
2017-03-22T08:19:38.661Z,9.91
2017-03-22T08:20:47.617Z,9.83
2017-03-22T08:21:56.657Z,9.78
2017-03-22T08:23:05.615Z,9.83
2017-03-22T08:24:14.829Z,9.72
2017-03-22T08:25:23.790Z,9.75
2017-03-22T08:26:32.754Z,9.81
2017-03-22T08:27:41.745Z,9.64
2017-03-22T08:28:50.709Z,9.48
2017-03-22T08:29:59.948Z,9.53
2017-03-22T08:31:08.904Z,9.58
2017-03-22T08:32:17.857Z,9.64
2017-03-22T08:33:26.807Z,9.75
2017-03-22T08:34:35.853Z,9.83
2017-03-22T08:35:45.057Z,9.79
2017-03-22T08:36:54.014Z,9.86
2017-03-22T08:38:02.971Z,9.9
2017-03-22T08:39:11.934Z,9.97
2017-03-22T08:40:20.890Z,10.04
2017-03-22T08:41:30.093Z,10.12
2017-03-22T08:42:39.040Z,10.23
2017-03-22T08:43:47.996Z,10.22
2017-03-22T08:44:56.951Z,10.38
2017-03-22T08:46:05.906Z,10.3
2017-03-22T08:47:15.118Z,10.38
2017-03-22T08:48:24.077Z,10.51
2017-03-22T08:49:33.036Z,10.52
2017-03-22T08:50:42.076Z,10.63
2017-03-22T08:51:51.030Z,10.64
2017-03-22T08:53:00.237Z,10.59
2017-03-22T08:54:09.204Z,10.78
2017-03-22T08:55:18.166Z,10.82
2017-03-22T08:56:27.117Z,10.92
2017-03-22T08:57:36.075Z,11.07
2017-03-22T08:58:45.300Z,11.04
2017-03-22T08:59:54.262Z,11.18
2017-03-22T09:01:03.225Z,11.19
2017-03-22T09:02:12.177Z,11.22
2017-03-22T09:03:21.135Z,11.36
2017-03-22T09:04:30.339Z,11.37
2017-03-22T09:05:39.296Z,11.46
2017-03-22T09:06:48.252Z,11.44
2017-03-22T09:07:57.201Z,11.51
2017-03-22T09:09:06.241Z,11.61
2017-03-22T09:10:15.444Z,11.62
2017-03-22T09:11:24.399Z,11.72
2017-03-22T09:12:33.363Z,11.7
2017-03-22T09:13:42.315Z,11.76
2017-03-22T09:14:51.278Z,11.73
2017-03-22T09:16:15.101Z,11.82
2017-03-22T09:17:24.060Z,11.88
2017-03-22T09:18:33.011Z,11.88
2017-03-22T09:19:41.965Z,11.91
2017-03-22T09:20:50.917Z,11.86
2017-03-22T09:22:00.122Z,11.98
2017-03-22T09:23:09.083Z,11.96
2017-03-22T09:24:18.044Z,11.96
2017-03-22T09:25:27.001Z,11.96
2017-03-22T09:26:35.956Z,11.96
2017-03-22T09:27:45.167Z,11.96
2017-03-22T09:28:54.124Z,11.96
2017-03-22T09:30:03.076Z,11.64
2017-03-22T09:31:12.029Z,11.54
2017-03-22T09:32:20.987Z,11.54
2017-03-22T09:33:30.195Z,11.42
2017-03-22T09:34:39.153Z,11.7
2017-03-22T09:35:48.107Z,11.82
2017-03-22T09:36:57.064Z,11.83
2017-03-22T09:38:06.016Z,11.8
2017-03-22T09:39:15.223Z,11.98
2017-03-22T09:40:24.173Z,12.17
2017-03-22T09:41:33.136Z,12.21
2017-03-22T09:42:42.099Z,12.24
2017-03-22T09:43:51.055Z,12.41
2017-03-22T09:45:00.258Z,12.41
2017-03-22T09:46:09.221Z,12.49
2017-03-22T09:47:18.174Z,12.59
2017-03-22T09:48:27.129Z,12.65
2017-03-22T09:49:36.171Z,12.74
2017-03-22T09:50:45.385Z,12.65
2017-03-22T09:51:54.374Z,12.7
2017-03-22T09:53:03.328Z,12.78
2017-03-22T09:54:12.605Z,12.68
2017-03-22T09:55:21.562Z,12.71
2017-03-22T09:56:30.770Z,12.77
2017-03-22T09:57:39.722Z,12.71
2017-03-22T09:58:48.680Z,12.74
2017-03-22T09:59:57.638Z,12.71
2017-03-22T10:01:06.595Z,12.67
2017-03-22T10:02:15.801Z,12.5
2017-03-22T10:03:24.754Z,12.53
2017-03-22T10:04:33.707Z,12.46
2017-03-22T10:05:42.667Z,12.53
2017-03-22T10:06:51.621Z,12.6
2017-03-22T10:08:00.820Z,12.57
2017-03-22T10:09:09.779Z,12.65
2017-03-22T10:10:18.737Z,12.65
2017-03-22T10:11:27.695Z,12.65
2017-03-22T10:12:36.654Z,12.68
2017-03-22T10:13:45.945Z,12.7
2017-03-22T10:14:55.237Z,12.92
2017-03-22T10:16:04.195Z,12.82
2017-03-22T10:17:13.148Z,12.83
2017-03-22T10:18:22.104Z,12.89
2017-03-22T10:19:31.313Z,12.9
2017-03-22T10:20:40.266Z,12.96
2017-03-22T10:21:49.230Z,13.04
2017-03-22T10:22:58.184Z,13.08
2017-03-22T10:24:07.137Z,13.1
2017-03-22T10:25:16.348Z,13.1
2017-03-22T10:26:25.639Z,13.08
2017-03-22T10:27:34.593Z,12.79
2017-03-22T10:28:43.552Z,12.7
2017-03-22T10:29:52.561Z,12.65
2017-03-22T10:31:01.769Z,12.59
2017-03-22T10:32:11.045Z,12.56
2017-03-22T10:33:19.995Z,12.52
2017-03-22T10:34:28.950Z,12.53
2017-03-22T10:35:37.912Z,12.47
2017-03-22T10:36:47.123Z,12.6
2017-03-22T10:37:56.077Z,12.54
2017-03-22T10:39:05.032Z,12.53
2017-03-22T10:40:14.076Z,12.75
2017-03-22T10:41:23.035Z,12.71
2017-03-22T10:42:32.235Z,12.79
2017-03-22T10:43:41.188Z,12.89
2017-03-22T10:44:50.142Z,12.89
2017-03-22T10:45:59.099Z,13.01
2017-03-22T10:47:08.067Z,12.93
2017-03-22T10:48:17.269Z,12.95
2017-03-22T10:49:26.223Z,13.01
2017-03-22T10:50:35.175Z,12.96
2017-03-22T10:51:44.129Z,13
2017-03-22T10:52:53.091Z,12.97
2017-03-22T10:54:02.294Z,12.97
2017-03-22T10:55:11.250Z,13.03
2017-03-22T10:56:20.204Z,13.04
2017-03-22T10:57:29.243Z,13.1
2017-03-22T10:58:38.526Z,13.19
2017-03-22T10:59:47.737Z,13.15
2017-03-22T11:00:56.694Z,13.22
2017-03-22T11:02:05.653Z,13.2
2017-03-22T11:03:14.602Z,13.28
2017-03-22T11:04:23.566Z,13.26
2017-03-22T11:05:32.771Z,13.26
2017-03-22T11:06:41.729Z,13.26
2017-03-22T11:07:50.681Z,13.26
2017-03-22T11:08:59.645Z,13.26
2017-03-22T11:10:08.610Z,13.39
2017-03-22T11:11:17.812Z,13.38
2017-03-22T11:12:26.798Z,13.45
2017-03-22T11:13:35.755Z,13.55
2017-03-22T11:14:44.708Z,13.52
2017-03-22T11:15:53.712Z,13.46
2017-03-22T11:17:02.928Z,13.45
2017-03-22T11:18:11.886Z,13.42
2017-03-22T11:19:20.846Z,13.42
2017-03-22T11:20:29.807Z,13.42
2017-03-22T11:21:38.762Z,13.45
2017-03-22T11:22:47.966Z,13.39
2017-03-22T11:23:56.924Z,13.38
2017-03-22T11:25:05.880Z,13.39
2017-03-22T11:26:14.846Z,13.39
2017-03-22T11:27:23.800Z,13.39
2017-03-22T11:28:33.007Z,13.46
2017-03-22T11:29:41.962Z,13.49
2017-03-22T11:30:50.926Z,13.55
2017-03-22T11:31:59.888Z,13.54
2017-03-22T11:33:09.175Z,13.55
2017-03-22T11:34:18.387Z,13.66
2017-03-22T11:35:27.343Z,13.69
2017-03-22T11:36:36.299Z,13.78
2017-03-22T11:37:45.342Z,13.78
2017-03-22T11:38:54.300Z,13.78
2017-03-22T11:40:03.506Z,13.79
2017-03-22T11:41:12.469Z,13.77
2017-03-22T11:42:21.453Z,13.81
2017-03-22T11:43:30.413Z,13.82
2017-03-22T11:44:39.369Z,13.79
2017-03-22T11:45:48.575Z,13.78
2017-03-22T11:46:57.530Z,13.66
2017-03-22T11:48:06.485Z,13.48
2017-03-22T11:49:15.440Z,13.33
2017-03-22T11:50:24.394Z,13.22
2017-03-22T11:51:33.606Z,13.15
2017-03-22T11:52:42.559Z,13.2
2017-03-22T11:53:51.515Z,13.22
2017-03-22T11:55:00.467Z,13.23
2017-03-22T11:56:09.423Z,13.22
2017-03-22T11:57:18.631Z,13.3
2017-03-22T11:58:27.679Z,13.33
2017-03-22T11:59:36.631Z,13.3
2017-03-22T12:00:45.588Z,13.39
2017-03-22T12:01:54.543Z,13.46
2017-03-22T12:03:03.891Z,13.39
2017-03-22T12:04:12.852Z,13.51
2017-03-22T12:05:21.811Z,13.62
2017-03-22T12:06:30.770Z,13.67
2017-03-22T12:07:39.726Z,13.7
2017-03-22T12:08:48.937Z,13.78
2017-03-22T12:09:57.899Z,13.75
2017-03-22T12:11:07.203Z,13.79
2017-03-22T12:12:16.159Z,13.82
2017-03-22T12:13:25.120Z,13.54
2017-03-22T12:14:34.328Z,13.3
2017-03-22T12:15:43.289Z,13.14
2017-03-22T12:16:52.246Z,13.07
2017-03-22T12:18:01.199Z,13.11
2017-03-22T12:19:10.155Z,13.17
2017-03-22T12:20:19.365Z,13.17
2017-03-22T12:21:28.322Z,13.23
2017-03-22T12:22:37.276Z,13.41
2017-03-22T12:23:46.324Z,13.44
2017-03-22T12:24:55.278Z,13.44
2017-03-22T12:26:04.489Z,13.49
2017-03-22T12:27:13.460Z,13.59
2017-03-22T12:28:22.413Z,13.6
2017-03-22T12:29:31.369Z,13.57
2017-03-22T12:30:40.327Z,13.67
2017-03-22T12:31:49.535Z,13.78
2017-03-22T12:32:58.491Z,13.67
2017-03-22T12:34:07.457Z,13.71
2017-03-22T12:35:16.414Z,13.66
2017-03-22T12:36:25.371Z,13.67
2017-03-22T12:37:34.578Z,13.71
2017-03-22T12:38:43.530Z,13.62
2017-03-22T12:39:52.484Z,13.39
2017-03-22T12:41:01.441Z,13.39
2017-03-22T12:42:10.414Z,13.38
2017-03-22T12:43:19.625Z,13.46
2017-03-22T12:44:28.581Z,13.41
2017-03-22T12:45:37.621Z,13.32
2017-03-22T12:46:46.587Z,13.29
2017-03-22T12:47:55.547Z,13.28
2017-03-22T12:49:05.082Z,13.39
2017-03-22T12:50:14.038Z,13.51
2017-03-22T12:51:22.991Z,13.6
2017-03-22T12:52:31.944Z,13.67
2017-03-22T12:53:40.900Z,13.7
2017-03-22T12:54:50.107Z,13.69
2017-03-22T12:55:59.065Z,13.79
2017-03-22T12:57:08.023Z,13.82
2017-03-22T12:58:16.981Z,13.89
2017-03-22T12:59:25.939Z,13.87
2017-03-22T13:00:35.230Z,13.97
2017-03-22T13:01:44.274Z,13.85
2017-03-22T13:02:53.230Z,13.92
2017-03-22T13:04:02.185Z,14.07
2017-03-22T13:05:11.146Z,14.02
2017-03-22T13:06:20.354Z,14
2017-03-22T13:07:29.315Z,14.02
2017-03-22T13:08:38.263Z,14
2017-03-22T13:09:47.225Z,13.87
2017-03-22T13:10:56.184Z,13.91
2017-03-22T13:12:05.384Z,13.89
2017-03-22T13:13:14.353Z,13.81
2017-03-22T13:14:23.313Z,13.85
2017-03-22T13:15:32.271Z,13.84
2017-03-22T13:16:41.306Z,13.91
2017-03-22T13:17:50.563Z,13.97
2017-03-22T13:18:59.625Z,14.04
2017-03-22T13:20:09.003Z,13.96
2017-03-22T13:21:18.046Z,13.96
2017-03-22T13:22:27.331Z,14
2017-03-22T13:23:36.542Z,13.99
2017-03-22T13:24:45.511Z,14.12
2017-03-22T13:25:54.472Z,14.1
2017-03-22T13:27:03.430Z,14
2017-03-22T13:28:12.385Z,14.04
2017-03-22T13:29:21.674Z,13.91
2017-03-22T13:30:30.631Z,13.92
2017-03-22T13:31:39.590Z,13.97
2017-03-22T13:32:48.875Z,14
2017-03-22T13:33:57.833Z,13.82
2017-03-22T13:35:07.042Z,13.79
2017-03-22T13:36:16.005Z,13.7
2017-03-22T13:37:24.965Z,13.57
2017-03-22T13:38:33.921Z,13.55
2017-03-22T13:39:42.881Z,13.52
2017-03-22T13:40:52.093Z,13.52
2017-03-22T13:42:01.061Z,13.41
2017-03-22T13:43:10.025Z,13.48
2017-03-22T13:44:18.982Z,13.39
2017-03-22T13:45:28.057Z,13.41
2017-03-22T13:46:37.264Z,13.41
2017-03-22T13:47:46.236Z,13.42
2017-03-22T13:48:55.189Z,13.41
2017-03-22T13:50:04.149Z,13.36
2017-03-22T13:51:13.109Z,13.55
2017-03-22T13:52:22.323Z,13.59
2017-03-22T13:53:31.280Z,13.55
2017-03-22T13:54:40.234Z,13.52
2017-03-22T13:55:49.194Z,13.52
2017-03-22T13:56:58.149Z,13.57
2017-03-22T13:58:07.385Z,13.45
2017-03-22T13:59:16.351Z,13.36
2017-03-22T14:00:25.306Z,13.39
2017-03-22T14:01:34.270Z,13.39
2017-03-22T14:02:43.229Z,13.41
2017-03-22T14:03:52.440Z,13.41
2017-03-22T14:05:01.483Z,13.48
2017-03-22T14:06:10.443Z,13.42
2017-03-22T14:07:19.401Z,13.48
2017-03-22T14:08:28.358Z,13.46
2017-03-22T14:09:37.559Z,13.55
2017-03-22T14:10:46.523Z,13.49
2017-03-22T14:11:55.572Z,13.62
2017-03-22T14:13:04.530Z,13.64
2017-03-22T14:14:13.488Z,13.63
2017-03-22T14:15:22.692Z,13.57
2017-03-22T14:16:31.653Z,13.55
2017-03-22T14:17:40.616Z,13.59
2017-03-22T14:18:49.574Z,13.62
2017-03-22T14:19:58.568Z,13.62
2017-03-22T14:21:07.778Z,13.71
2017-03-22T14:22:16.731Z,13.73
2017-03-22T14:23:25.686Z,13.71
2017-03-22T14:24:34.645Z,13.71
2017-03-22T14:25:43.603Z,13.73
2017-03-22T14:26:52.812Z,13.73
2017-03-22T14:28:01.771Z,13.77
2017-03-22T14:29:10.725Z,13.87
2017-03-22T14:30:19.680Z,13.81
2017-03-22T14:31:28.647Z,13.85
2017-03-22T14:32:37.858Z,13.92
2017-03-22T14:33:46.821Z,13.99
2017-03-22T14:34:55.815Z,13.96
2017-03-22T14:36:04.781Z,13.96
2017-03-22T14:37:13.730Z,13.95
2017-03-22T14:38:22.983Z,13.99
2017-03-22T14:39:31.943Z,13.96
2017-03-22T14:40:40.899Z,13.97
2017-03-22T14:41:49.861Z,13.95
2017-03-22T14:42:58.825Z,14
2017-03-22T14:44:08.033Z,13.95
2017-03-22T14:45:16.991Z,13.88
2017-03-22T14:46:25.951Z,13.79
2017-03-22T14:47:35.237Z,13.84
2017-03-22T14:48:44.620Z,13.73
2017-03-22T14:49:54.473Z,13.62
2017-03-22T14:51:03.751Z,13.57
2017-03-22T14:52:13.043Z,13.52
2017-03-22T14:53:22.008Z,13.66
2017-03-22T14:54:30.976Z,13.69
2017-03-22T14:55:40.226Z,13.55
2017-03-22T14:56:49.188Z,13.54
2017-03-22T14:57:58.145Z,13.59
2017-03-22T14:59:07.107Z,13.63
2017-03-22T15:00:16.061Z,13.59
2017-03-22T15:01:25.270Z,13.69
2017-03-22T15:02:34.225Z,13.55
2017-03-22T15:03:43.269Z,13.6
2017-03-22T15:04:52.311Z,13.67
2017-03-22T15:06:01.271Z,13.51
2017-03-22T15:07:10.535Z,13.45
2017-03-22T15:08:19.490Z,13.42
2017-03-22T15:09:28.772Z,13.44
2017-03-22T15:10:37.732Z,13.39